Tainan Airport
RCNN : now visible

Airfield :











YOU CAN JOIN US ON...

 
LOGIN :

Register | Disclaimer

   EN    FR    IT 

 









Legend :    VFR   Marginal VFR   IFR   Intensive IFR   Very Intensive IFR
Visi :
Ceiling :
>= 8 km
>= 3000ft
5 to 8 km
1000 to 3000 ft
1500m to 5 km
500 to 1000 ft
800 to 1500m
200 to 500 ft
< 800m
< 200 ft
Symbols :   Thunderstorms  Fog  Heavy snow  Heavy precipitations  Wind > 20 kt






- Airport Elevation : 63 ft
- IATA code : TNN


RCNN - Tainan

CURRENT METAR :
  • 201800Z 02002KT 6000 FEW012 16/13 Q1025 RMK A3027

EXPIRED METARs :
  • 201700Z 03003KT 6000 FEW012 16/13 Q1025 RMK A3028
  • 201600Z 36002KT 8000 FEW012 16/12 Q1025 RMK A3028

TAF TAF RCNN
Valid from the 20 at 18:00 until the 21 at 18:00 UTC


201700Z 2018/2118 36004KT 4000 BR FEW012 TX25/2106Z TN17/2020Z
TEMPO 2019/2023 2400 BR
BECMG 2100/2103 36010KT 7000
BECMG 2104/2107 9999
BECMG 2112/2115 02004KT 7000



MET'MAP, your aeronautical weather chart ! - Copyright ORBIFLY December 2007 - Disclaimer

ORBIFLY MET'MAP TEAM :

Programming & Development : Alexandra Zaïnal
Concept & original design : Baudouin d'Aumeries
Assistance for programming : Marc-Olivier Méhu
Technical & hardware support : Manuel Goepfert

Contact : metmap@orbifly.com




SOURCES & CREDITS :

   NOAA       Earth
Advisory